Time;durP1;ratioP1;P1;durP2;ratioP2;P2;SDS_P1;SDS_P2;PMS_P1;PMS_P2;Temp;Humidity;BMP_temperature;BMP_pressure;BME280_temperature;BME280_humidity;BME280_pressure;Samples;Min_cycle;Max_cycle;Signal;HPM_P1;HPM_P2
2020/12/29 00:02:07;;;;;;;38.58;19.58;;;;;;;2.74;100.00;97875.81;6246168;28;20136;-71
2020/12/29 00:05:08;;;;;;;36.42;20.23;;;;;;;2.83;100.00;97872.59;6246179;28;20052;-71
2020/12/29 00:08:09;;;;;;;34.38;18.75;;;;;;;2.77;100.00;97879.06;6245679;28;20054;-71
2020/12/29 00:11:10;;;;;;;34.70;18.85;;;;;;;2.78;100.00;97872.91;6245706;28;20049;-71
2020/12/29 00:14:12;;;;;;;37.88;19.88;;;;;;;2.82;100.00;97877.88;6246108;28;20126;-71
2020/12/29 00:17:13;;;;;;;38.05;20.33;;;;;;;2.83;100.00;97872.59;6245310;28;20111;-71
2020/12/29 00:20:14;;;;;;;34.50;18.70;;;;;;;2.92;100.00;97871.97;6245646;28;20076;-71
2020/12/29 00:23:15;;;;;;;31.63;18.55;;;;;;;2.97;100.00;97876.84;6245516;28;20049;-71
2020/12/29 00:26:17;;;;;;;33.80;18.50;;;;;;;2.84;100.00;97879.44;6245871;28;20052;-72
2020/12/29 00:29:18;;;;;;;32.55;18.17;;;;;;;2.85;100.00;97881.09;6245488;28;20060;-71
2020/12/29 00:32:20;;;;;;;31.58;17.63;;;;;;;2.87;100.00;97873.25;6245805;28;20045;-71
2020/12/29 00:35:21;;;;;;;34.33;18.23;;;;;;;2.89;100.00;97860.97;6245848;28;20548;-71
2020/12/29 00:38:22;;;;;;;34.65;19.13;;;;;;;2.94;100.00;97864.09;6245350;28;20053;-71
2020/12/29 00:41:24;;;;;;;34.60;18.67;;;;;;;2.88;100.00;97857.56;6245358;28;20123;-71
2020/12/29 00:44:25;;;;;;;31.00;16.67;;;;;;;2.88;100.00;97856.72;6245588;28;20046;-71
2020/12/29 00:47:26;;;;;;;32.03;17.50;;;;;;;2.90;100.00;97847.91;6244946;28;20053;-71
2020/12/29 00:50:27;;;;;;;28.05;15.57;;;;;;;2.88;100.00;97851.53;6248286;28;20103;-71
2020/12/29 00:53:28;;;;;;;31.80;18.00;;;;;;;2.88;100.00;97847.19;6250169;28;20053;-70
2020/12/29 00:56:29;;;;;;;33.47;18.30;;;;;;;2.88;100.00;97847.19;6249560;28;20132;-71
2020/12/29 00:59:30;;;;;;;33.55;18.55;;;;;;;2.88;100.00;97846.38;6249515;28;20426;-71
2020/12/29 01:02:31;;;;;;;32.63;17.98;;;;;;;2.89;100.00;97853.19;6249857;28;20072;-71
2020/12/29 01:05:32;;;;;;;33.38;18.38;;;;;;;2.88;100.00;97856.72;6249683;28;20056;-71
2020/12/29 01:08:33;;;;;;;31.17;18.02;;;;;;;2.89;100.00;97858.38;6249354;28;20057;-71
2020/12/29 01:11:34;;;;;;;31.33;17.92;;;;;;;2.87;100.00;97857.69;6249158;28;20124;-72
2020/12/29 01:14:35;;;;;;;33.67;18.65;;;;;;;2.85;100.00;97857.75;6249665;28;20056;-71
2020/12/29 01:17:36;;;;;;;32.15;17.63;;;;;;;2.86;100.00;97853.41;6249222;28;20557;-72
2020/12/29 01:20:38;;;;;;;35.55;18.33;;;;;;;2.86;100.00;97846.47;6248950;28;20497;-72
2020/12/29 01:23:39;;;;;;;34.90;19.05;;;;;;;2.87;100.00;97855.91;6249287;28;20049;-72
2020/12/29 01:26:39;;;;;;;33.30;17.02;;;;;;;2.88;100.00;97854.16;6249121;28;20060;-72
2020/12/29 01:29:40;;;;;;;34.97;18.17;;;;;;;2.87;100.00;97853.31;6248499;28;20053;-72
2020/12/29 01:32:42;;;;;;;34.33;18.58;;;;;;;2.86;100.00;97851.66;6248914;28;20045;-71
2020/12/29 01:35:43;;;;;;;28.50;16.60;;;;;;;2.86;100.00;97856.84;6249016;28;20426;-72
2020/12/29 01:38:44;;;;;;;34.42;16.98;;;;;;;2.93;100.00;97865.84;6248118;28;20053;-72
2020/12/29 01:41:45;;;;;;;29.95;17.05;;;;;;;2.88;100.00;97867.94;6249115;28;20060;-72
2020/12/29 01:44:46;;;;;;;26.88;15.70;;;;;;;2.85;100.00;97862.94;6248776;28;20046;-72
2020/12/29 01:47:48;;;;;;;30.90;16.98;;;;;;;2.83;100.00;97857.06;6248324;28;20045;-72
2020/12/29 01:50:50;;;;;;;35.30;18.60;;;;;;;2.81;100.00;97851.13;6248218;28;20136;-72
2020/12/29 01:53:51;;;;;;;36.17;17.40;;;;;;;2.80;100.00;97850.28;6248410;28;20041;-71
2020/12/29 01:56:52;;;;;;;34.20;18.20;;;;;;;2.82;100.00;97850.22;6248311;28;20064;-72
2020/12/29 01:59:52;;;;;;;29.60;17.10;;;;;;;2.78;100.00;97844.41;6247709;28;20049;-72
2020/12/29 02:02:54;;;;;;;33.95;17.55;;;;;;;2.76;100.00;97848.84;6248006;28;20049;-72
2020/12/29 02:05:55;;;;;;;34.00;17.48;;;;;;;2.78;100.00;97851.34;6247932;28;20095;-71
2020/12/29 02:08:56;;;;;;;30.17;16.80;;;;;;;2.75;100.00;97848.97;6247757;28;20086;-72
2020/12/29 02:11:57;;;;;;;34.80;18.77;;;;;;;2.75;100.00;97856.72;6248087;28;20486;-71
2020/12/29 02:14:59;;;;;;;36.05;18.38;;;;;;;2.70;100.00;97870.00;6248205;28;20049;-71
2020/12/29 02:18:00;;;;;;;31.15;17.48;;;;;;;2.66;100.00;97865.97;6247184;28;20084;-71
2020/12/29 02:21:02;;;;;;;28.52;16.58;;;;;;;2.59;100.00;97874.25;6247235;28;20049;-71
2020/12/29 02:24:04;;;;;;;32.50;17.73;;;;;;;2.52;100.00;97879.03;6247890;28;20514;-72
2020/12/29 02:27:05;;;;;;;31.52;17.15;;;;;;;2.45;100.00;97888.97;6247635;28;20060;-72
2020/12/29 02:30:06;;;;;;;30.60;16.52;;;;;;;2.44;100.00;97889.06;6247404;28;20096;-71
2020/12/29 02:33:07;;;;;;;30.90;17.52;;;;;;;2.56;100.00;97887.44;6247507;28;20050;-72
2020/12/29 02:36:10;;;;;;;26.88;15.63;;;;;;;2.52;100.00;97890.22;6247282;28;20087;-72
2020/12/29 02:39:12;;;;;;;28.48;15.80;;;;;;;2.56;100.00;97902.97;6246969;28;20465;-71
2020/12/29 02:42:12;;;;;;;27.33;15.73;;;;;;;2.64;100.00;97903.31;6247568;28;20115;-71
2020/12/29 02:45:13;;;;;;;25.38;15.43;;;;;;;2.60;100.00;97907.88;6247178;28;20041;-72
2020/12/29 02:48:14;;;;;;;30.50;16.80;;;;;;;2.61;100.00;97904.34;6247110;28;20050;-71
2020/12/29 02:51:15;;;;;;;26.30;14.90;;;;;;;2.68;100.00;97908.19;6246914;28;20053;-72
2020/12/29 02:54:17;;;;;;;27.30;15.18;;;;;;;2.64;100.00;97906.72;6247245;28;20052;-70
2020/12/29 02:57:18;;;;;;;25.52;15.25;;;;;;;2.66;100.00;97911.81;6246914;28;20060;-71
2020/12/29 03:00:19;;;;;;;23.13;14.50;;;;;;;2.73;100.00;97913.06;6246544;28;20049;-71
2020/12/29 03:03:20;;;;;;;24.80;14.85;;;;;;;2.72;100.00;97921.75;6247133;28;20049;-71
2020/12/29 03:06:21;;;;;;;22.75;13.85;;;;;;;2.72;100.00;97922.56;6246246;28;20057;-71
2020/12/29 03:09:23;;;;;;;24.38;14.18;;;;;;;2.72;100.00;97929.53;6246355;28;20110;-71
2020/12/29 03:12:23;;;;;;;22.73;13.88;;;;;;;2.68;100.00;97930.66;6246787;28;20501;-71
2020/12/29 03:15:24;;;;;;;25.23;14.43;;;;;;;2.63;100.00;97933.56;6246698;28;20060;-71
2020/12/29 03:18:25;;;;;;;25.65;15.05;;;;;;;2.61;100.00;97940.63;6246423;28;20050;-71
2020/12/29 03:21:26;;;;;;;28.30;15.02;;;;;;;2.57;100.00;97938.34;6246440;28;20532;-72
2020/12/29 03:24:27;;;;;;;26.45;15.05;;;;;;;2.58;100.00;97951.19;6246278;28;20046;-71
2020/12/29 03:27:28;;;;;;;24.17;14.20;;;;;;;2.54;100.00;97947.13;6246451;28;20100;-71
2020/12/29 03:30:29;;;;;;;26.15;14.27;;;;;;;2.55;100.00;97951.41;6245931;28;20045;-71
2020/12/29 03:33:30;;;;;;;22.92;13.88;;;;;;;2.52;100.00;97949.00;6246524;28;20049;-71
2020/12/29 03:36:31;;;;;;;24.15;14.15;;;;;;;2.50;100.00;97958.66;6246016;28;20055;-72
2020/12/29 03:39:33;;;;;;;21.52;13.05;;;;;;;2.46;100.00;97955.44;6246008;28;20060;-72
2020/12/29 03:42:34;;;;;;;21.05;12.95;;;;;;;2.39;100.00;97956.75;6246471;28;20513;-72
2020/12/29 03:45:34;;;;;;;24.15;13.63;;;;;;;2.26;100.00;97966.25;6246364;28;20045;-71
2020/12/29 03:48:35;;;;;;;22.98;13.70;;;;;;;2.18;100.00;97963.31;6245766;28;20525;-71
2020/12/29 03:51:36;;;;;;;22.88;13.25;;;;;;;2.08;100.00;97970.81;6245933;28;20128;-71
2020/12/29 03:54:38;;;;;;;21.23;13.27;;;;;;;1.93;100.00;97977.00;6246409;28;20068;-71
2020/12/29 03:57:39;;;;;;;25.83;13.43;;;;;;;1.88;100.00;97979.03;6245988;28;20060;-71
2020/12/29 04:00:40;;;;;;;22.52;13.02;;;;;;;1.81;100.00;97975.16;6245669;28;20473;-71
2020/12/29 04:03:42;;;;;;;21.48;12.82;;;;;;;1.71;100.00;97983.50;6246349;28;20091;-71
2020/12/29 04:06:43;;;;;;;24.13;14.05;;;;;;;1.66;100.00;97990.72;6245480;28;20050;-71
2020/12/29 04:09:45;;;;;;;20.80;12.85;;;;;;;1.63;100.00;97980.53;6245804;28;20103;-71
2020/12/29 04:12:46;;;;;;;24.95;15.00;;;;;;;1.54;100.00;97991.47;6245791;28;20477;-71
2020/12/29 04:15:47;;;;;;;22.42;13.45;;;;;;;1.63;100.00;97990.06;6245668;28;20418;-71
2020/12/29 04:18:48;;;;;;;22.42;13.85;;;;;;;1.58;100.00;97992.94;6245105;28;20049;-71
2020/12/29 04:21:49;;;;;;;20.65;13.20;;;;;;;1.56;100.00;97993.97;6245042;28;20422;-71
2020/12/29 04:24:50;;;;;;;21.40;12.68;;;;;;;1.48;100.00;97994.44;6248257;28;20049;-72
2020/12/29 04:27:51;;;;;;;21.35;13.50;;;;;;;1.36;100.00;97987.41;6250476;28;20486;-71
2020/12/29 04:30:52;;;;;;;24.00;14.45;;;;;;;1.33;100.00;97982.44;6250237;28;20103;-71
2020/12/29 04:33:53;;;;;;;23.88;14.23;;;;;;;1.31;100.00;97979.91;6250333;28;20467;-71
2020/12/29 04:36:54;;;;;;;23.65;14.10;;;;;;;1.24;100.00;97982.06;6249979;28;20055;-71
2020/12/29 04:39:56;;;;;;;26.60;15.40;;;;;;;1.18;100.00;97979.84;6249963;28;20095;-71
2020/12/29 04:42:57;;;;;;;25.52;14.50;;;;;;;1.17;100.00;97982.50;6250061;28;20049;-71
2020/12/29 04:46:00;;;;;;;23.52;15.02;;;;;;;1.16;100.00;97986.00;6249894;28;20045;-72
2020/12/29 04:49:01;;;;;;;28.05;14.30;;;;;;;1.18;100.00;97985.00;6249546;28;20418;-71
2020/12/29 04:52:04;;;;;;;24.23;14.00;;;;;;;1.12;100.00;97982.78;6250166;28;20053;-71
2020/12/29 04:55:07;;;;;;;23.63;13.82;;;;;;;1.12;100.00;97979.34;6249729;28;20418;-71
2020/12/29 04:58:07;;;;;;;22.23;13.95;;;;;;;1.19;100.00;97988.44;6249690;28;20049;-71
2020/12/29 05:01:09;;;;;;;22.92;14.40;;;;;;;1.23;100.00;97984.75;6249651;28;20103;-70
2020/12/29 05:04:10;;;;;;;28.33;14.63;;;;;;;1.29;100.00;97983.53;6250045;28;20485;-71
2020/12/29 05:07:11;;;;;;;27.80;16.27;;;;;;;1.34;100.00;97992.66;6249092;28;20140;-71
2020/12/29 05:10:13;;;;;;;25.35;14.13;;;;;;;1.44;100.00;97992.94;6249418;28;20053;-71
2020/12/29 05:13:13;;;;;;;24.40;14.45;;;;;;;1.42;100.00;97989.63;6249163;28;20049;-71
2020/12/29 05:16:15;;;;;;;25.17;13.75;;;;;;;1.45;100.00;97992.88;6249474;28;20061;-71
2020/12/29 05:19:17;;;;;;;23.23;13.93;;;;;;;1.51;100.00;97996.84;6248925;28;20127;-71
2020/12/29 05:22:19;;;;;;;24.17;13.63;;;;;;;1.53;100.00;98006.16;6249313;28;20399;-71
2020/12/29 05:25:24;;;;;;;22.85;13.55;;;;;;;1.59;100.00;98009.28;6249175;28;20045;-70
2020/12/29 05:28:26;;;;;;;22.58;13.32;;;;;;;1.62;100.00;98012.53;6249093;28;20103;-71
2020/12/29 05:31:27;;;;;;;20.85;13.00;;;;;;;1.70;100.00;98015.50;6248666;28;20079;-71
2020/12/29 05:34:29;;;;;;;19.42;12.07;;;;;;;1.64;100.00;98007.28;6249333;28;20049;-71
2020/12/29 05:37:31;;;;;;;21.35;12.85;;;;;;;1.65;100.00;98011.53;6247548;28;20053;-71
2020/12/29 05:40:33;;;;;;;24.80;13.13;;;;;;;1.69;100.00;98008.66;6248572;28;20056;-71
2020/12/29 05:43:34;;;;;;;19.17;11.45;;;;;;;1.74;100.00;98010.97;6248646;28;20057;-72
2020/12/29 05:46:35;;;;;;;20.88;12.65;;;;;;;1.71;100.00;98008.56;6248753;28;20132;-71
2020/12/29 05:49:36;;;;;;;19.88;12.77;;;;;;;1.69;100.00;98006.06;6248440;28;20045;-71
2020/12/29 05:52:40;;;;;;;21.52;12.48;;;;;;;1.67;100.00;98010.50;6248620;28;20056;-71
2020/12/29 05:55:45;;;;;;;19.40;11.70;;;;;;;1.70;100.00;98023.25;6248405;28;20387;-71
2020/12/29 05:58:47;;;;;;;20.73;12.05;;;;;;;1.72;100.00;98030.91;6247823;28;20049;-71
2020/12/29 06:01:50;;;;;;;21.85;11.80;;;;;;;1.74;100.00;98026.50;6248654;28;20494;-70
2020/12/29 06:04:51;;;;;;;22.23;13.10;;;;;;;1.70;100.00;98030.19;6248471;28;20045;-71
2020/12/29 06:07:56;;;;;;;17.63;11.40;;;;;;;1.73;100.00;98033.44;6247822;28;20054;-71
2020/12/29 06:11:05;;;;;;;19.80;11.63;;;;;;;1.69;100.00;98033.72;6247800;28;20046;-71
2020/12/29 06:14:12;;;;;;;17.63;11.43;;;;;;;1.78;100.00;98043.50;6248015;28;20049;-71
2020/12/29 06:17:17;;;;;;;17.73;10.30;;;;;;;1.72;100.00;98046.44;6247682;28;20482;-71
2020/12/29 06:20:18;;;;;;;16.25;10.23;;;;;;;1.76;100.00;98051.34;6247558;28;20073;-71
2020/12/29 06:23:19;;;;;;;20.00;10.55;;;;;;;1.74;100.00;98047.19;6247936;28;20060;-71
2020/12/29 06:26:32;;;;;;;15.43;10.57;;;;;;;1.74;100.00;98053.22;6247554;28;20049;-71
2020/12/29 06:29:36;;;;;;;16.70;10.30;;;;;;;1.75;100.00;98059.22;6247226;28;20061;-71
2020/12/29 06:32:43;;;;;;;14.90;10.10;;;;;;;1.76;100.00;98063.47;6247635;28;20073;-70
2020/12/29 06:35:44;;;;;;;17.85;10.15;;;;;;;1.78;100.00;98067.63;6247620;28;20045;-70
2020/12/29 06:38:48;;;;;;;14.68;9.32;;;;;;;1.73;100.00;98074.84;6246867;28;20068;-72
2020/12/29 06:41:51;;;;;;;16.83;9.65;;;;;;;1.73;100.00;98074.84;6247233;28;20049;-71
2020/12/29 06:44:53;;;;;;;15.15;9.30;;;;;;;1.76;100.00;98079.81;6247520;28;20050;-70
2020/12/29 06:47:54;;;;;;;16.73;9.98;;;;;;;1.75;100.00;98083.34;6246720;28;20060;-71
2020/12/29 06:51:07;;;;;;;14.07;9.23;;;;;;;1.77;100.00;98091.88;6247120;28;20053;-70
2020/12/29 06:54:08;;;;;;;13.88;9.25;;;;;;;1.75;100.00;98098.88;6247272;28;20049;-70
2020/12/29 06:57:10;;;;;;;15.07;9.85;;;;;;;1.77;100.00;98110.00;6246846;28;20428;-70
2020/12/29 07:00:16;;;;;;;13.40;9.25;;;;;;;1.80;100.00;98108.13;6246744;28;20406;-71
2020/12/29 07:03:31;;;;;;;15.63;8.75;;;;;;;1.77;100.00;98106.53;6247093;28;20053;-70
2020/12/29 07:06:33;;;;;;;13.10;8.80;;;;;;;1.76;100.00;98110.06;6246810;28;20056;-70
2020/12/29 07:09:35;;;;;;;14.75;8.40;;;;;;;1.80;100.00;98115.91;6246506;28;20049;-70
2020/12/29 07:12:41;;;;;;;12.60;8.63;;;;;;;1.70;100.00;98125.97;6233783;28;20053;-70
2020/12/29 07:15:45;;;;;;;14.55;9.60;;;;;;;1.70;100.00;98124.22;6246793;28;20049;-70
2020/12/29 07:18:46;;;;;;;15.57;8.20;;;;;;;1.88;100.00;98134.41;6246021;28;20488;-70
2020/12/29 07:21:47;;;;;;;13.00;8.20;;;;;;;1.74;100.00;98137.81;6246537;28;20062;-70
2020/12/29 07:24:49;;;;;;;14.55;9.15;;;;;;;1.71;100.00;98146.59;6246623;28;20046;-70
2020/12/29 07:27:54;;;;;;;12.43;8.30;;;;;;;1.72;100.00;98140.47;6246231;28;20108;-70
2020/12/29 07:30:56;;;;;;;12.02;8.23;;;;;;;1.72;100.00;98142.22;6246211;28;20050;-71
2020/12/29 07:34:02;;;;;;;12.50;7.97;;;;;;;1.66;100.00;98148.63;6246498;28;20053;-71
2020/12/29 07:37:03;;;;;;;14.23;7.75;;;;;;;1.70;100.00;98152.69;6246146;28;20053;-71
2020/12/29 07:40:04;;;;;;;13.20;7.65;;;;;;;1.74;100.00;98154.19;6238136;28;20042;-71
2020/12/29 07:43:06;;;;;;;11.93;7.25;;;;;;;1.82;99.93;98161.50;6239011;28;20053;-71
2020/12/29 07:46:07;;;;;;;12.80;7.15;;;;;;;1.67;100.00;98165.81;6246183;28;20052;-71
2020/12/29 07:49:08;;;;;;;13.85;8.18;;;;;;;1.70;99.90;98168.22;6245945;28;20041;-71
2020/12/29 07:52:09;;;;;;;9.80;7.15;;;;;;;1.70;99.72;98172.56;6246463;28;20545;-70
2020/12/29 07:55:12;;;;;;;14.50;7.70;;;;;;;1.72;99.87;98170.72;6246186;28;20486;-71
2020/12/29 07:58:14;;;;;;;12.75;7.32;;;;;;;1.72;100.00;98178.47;6246117;28;20057;-70
2020/12/29 08:01:15;;;;;;;13.23;6.72;;;;;;;1.68;100.00;98184.75;6250680;28;20460;-70
2020/12/29 08:04:23;;;;;;;11.15;7.05;;;;;;;1.74;99.36;98184.41;6251160;28;20050;-71
2020/12/29 08:07:24;;;;;;;9.57;7.13;;;;;;;1.78;99.55;98194.50;6250798;28;20053;-70
2020/12/29 08:10:26;;;;;;;12.57;7.47;;;;;;;1.81;99.22;98201.25;6250512;28;20076;-71
2020/12/29 08:13:28;;;;;;;11.90;7.82;;;;;;;1.82;99.41;98210.69;6250792;28;20053;-71
2020/12/29 08:16:29;;;;;;;13.55;7.93;;;;;;;1.83;99.44;98211.53;6250408;28;20060;-71
2020/12/29 08:19:30;;;;;;;11.70;7.93;;;;;;;1.83;99.75;98214.94;6250653;28;20095;-70
2020/12/29 08:22:30;;;;;;;13.85;8.88;;;;;;;1.83;99.89;98217.53;6250723;28;20053;-71
2020/12/29 08:25:32;;;;;;;13.38;8.23;;;;;;;1.80;99.19;98229.81;6250943;28;20550;-70
2020/12/29 08:28:34;;;;;;;13.98;8.30;;;;;;;1.84;99.75;98221.78;6250197;28;20064;-71
2020/12/29 08:31:37;;;;;;;13.45;8.30;;;;;;;1.84;99.47;98228.72;6250237;28;20607;-71
2020/12/29 08:34:40;;;;;;;13.55;8.50;;;;;;;1.86;99.71;98239.81;6250512;28;20041;-71
2020/12/29 08:38:02;;;;;;;11.70;7.03;;;;;;;1.86;99.98;98253.59;6249978;28;20057;-71
2020/12/29 08:41:14;;;;;;;16.88;8.25;;;;;;;1.92;99.21;98260.19;6249725;28;20041;-71
2020/12/29 08:44:17;;;;;;;23.05;8.38;;;;;;;1.88;99.69;98269.06;6250436;28;20046;-71
2020/12/29 08:47:18;;;;;;;19.35;8.10;;;;;;;1.94;99.24;98273.88;6249969;28;20049;-70
2020/12/29 08:50:24;;;;;;;25.63;7.97;;;;;;;1.94;98.99;98269.53;6249876;28;20081;-70
2020/12/29 08:53:27;;;;;;;12.70;7.10;;;;;;;1.89;98.99;98275.91;6250095;28;20076;-71
2020/12/29 08:56:28;;;;;;;14.73;7.00;;;;;;;1.89;99.51;98275.91;6249604;28;20112;-70
2020/12/29 08:59:39;;;;;;;13.23;7.57;;;;;;;1.91;99.11;98280.06;6249641;28;20049;-71
2020/12/29 09:02:40;;;;;;;12.15;7.18;;;;;;;2.06;98.93;98288.72;6249825;28;20103;-71
2020/12/29 09:05:45;;;;;;;12.63;7.13;;;;;;;2.06;98.58;98303.41;6249826;28;20073;-70
2020/12/29 09:08:45;;;;;;;12.50;8.02;;;;;;;2.08;98.92;98304.16;6248727;28;20046;-71
2020/12/29 09:11:46;;;;;;;16.27;8.45;;;;;;;2.11;98.54;98310.00;6249349;28;20050;-70
2020/12/29 09:14:56;;;;;;;15.52;9.27;;;;;;;2.14;98.41;98320.19;6249375;28;20505;-71
2020/12/29 09:17:58;;;;;;;17.42;9.50;;;;;;;2.11;98.60;98320.34;6249387;28;20049;-70
2020/12/29 09:21:18;;;;;;;20.63;10.07;;;;;;;2.16;98.46;98322.69;6248824;28;20053;-71
2020/12/29 09:24:20;;;;;;;15.38;9.68;;;;;;;2.18;98.97;98328.59;6249668;28;20049;-71
2020/12/29 09:27:28;;;;;;;14.02;9.00;;;;;;;2.22;99.29;98333.50;6247543;28;20495;-70
2020/12/29 09:30:30;;;;;;;16.30;9.27;;;;;;;2.28;98.66;98335.75;6247537;28;20067;-70
2020/12/29 09:33:32;;;;;;;19.25;9.57;;;;;;;2.25;98.75;98330.75;6248772;28;20418;-71
2020/12/29 09:36:33;;;;;;;13.07;8.40;;;;;;;2.27;99.13;98339.28;6248673;28;20053;-71
2020/12/29 09:39:34;;;;;;;13.88;8.13;;;;;;;2.31;98.45;98342.50;6248526;28;20607;-71
2020/12/29 09:42:35;;;;;;;15.68;8.43;;;;;;;2.33;98.46;98345.84;6248704;28;20111;-71
2020/12/29 09:45:36;;;;;;;13.35;8.40;;;;;;;2.40;99.06;98341.97;6248675;28;20068;-71
2020/12/29 09:48:38;;;;;;;17.50;8.80;;;;;;;2.46;98.63;98352.00;6247902;28;20049;-71
2020/12/29 09:51:38;;;;;;;17.38;8.77;;;;;;;2.58;98.13;98347.81;6248713;28;20092;-71
2020/12/29 09:54:39;;;;;;;18.10;8.55;;;;;;;2.57;98.27;98351.34;6248634;28;20407;-73
2020/12/29 09:57:40;;;;;;;14.90;8.52;;;;;;;2.61;97.30;98358.03;6248328;28;20053;-71
2020/12/29 10:00:42;;;;;;;14.57;8.95;;;;;;;2.58;97.46;98365.97;6248195;28;20049;-70
2020/12/29 10:03:43;;;;;;;16.35;8.65;;;;;;;2.73;96.75;98367.69;6248413;28;20120;-70
2020/12/29 10:06:44;;;;;;;15.98;8.98;;;;;;;2.76;96.85;98377.00;6247822;28;20403;-70
2020/12/29 10:09:44;;;;;;;18.73;9.38;;;;;;;2.74;97.82;98371.94;6248041;28;20056;-70
2020/12/29 10:12:45;;;;;;;16.05;9.63;;;;;;;2.75;97.70;98375.34;6247966;28;20049;-71
2020/12/29 10:15:47;;;;;;;18.38;9.48;;;;;;;2.75;97.67;98377.94;6248230;28;20041;-71
2020/12/29 10:18:48;;;;;;;18.13;8.85;;;;;;;2.90;98.15;98379.59;6247418;28;20132;-70
2020/12/29 10:21:52;;;;;;;12.73;8.70;;;;;;;3.00;97.23;98385.94;6246300;28;20425;-71
2020/12/29 10:24:52;;;;;;;13.48;8.55;;;;;;;3.01;96.21;98387.59;6248005;28;20517;-71
2020/12/29 10:27:53;;;;;;;16.40;9.10;;;;;;;3.11;96.23;98387.03;6241829;28;20057;-70
2020/12/29 10:30:55;;;;;;;16.95;9.15;;;;;;;3.10;93.94;98387.97;6246901;28;20050;-71
2020/12/29 10:33:56;;;;;;;15.40;8.85;;;;;;;3.10;95.30;98383.63;6247459;28;20045;-71
2020/12/29 10:36:57;;;;;;;19.10;9.95;;;;;;;3.00;95.00;98383.34;6247534;28;20053;-71
2020/12/29 10:39:58;;;;;;;15.40;8.15;;;;;;;3.02;95.45;98376.28;6246809;28;20052;-71
2020/12/29 10:42:59;;;;;;;16.35;9.65;;;;;;;2.95;95.85;98382.78;6247745;28;20140;-71
2020/12/29 10:46:00;;;;;;;15.57;9.77;;;;;;;2.97;96.53;98390.47;6246535;28;20052;-69
2020/12/29 10:49:01;;;;;;;17.70;9.15;;;;;;;3.01;96.59;98397.16;6246100;28;20061;-70
2020/12/29 10:52:02;;;;;;;17.25;10.95;;;;;;;3.12;94.64;98394.72;6240382;28;20057;-69
2020/12/29 10:55:03;;;;;;;17.25;9.60;;;;;;;3.12;94.81;98399.06;6233459;28;20434;-70
2020/12/29 10:58:04;;;;;;;15.98;8.23;;;;;;;3.18;93.42;98396.97;6243690;28;20045;-72
2020/12/29 11:01:06;;;;;;;17.50;8.70;;;;;;;3.18;92.73;98396.09;6222038;28;20050;-72
2020/12/29 11:04:06;;;;;;;13.75;8.25;;;;;;;3.17;92.23;98399.63;6222657;28;20077;-72
2020/12/29 11:07:07;;;;;;;15.73;8.35;;;;;;;3.13;92.75;98404.16;6229130;28;20053;-72
2020/12/29 11:10:08;;;;;;;18.88;8.98;;;;;;;3.17;93.23;98413.44;6246423;28;20054;-72
2020/12/29 11:13:10;;;;;;;14.52;8.63;;;;;;;3.31;93.69;98429.00;6246861;28;20053;-72
2020/12/29 11:16:15;;;;;;;15.38;8.30;;;;;;;3.37;92.98;98429.59;6246271;28;20452;-72
2020/12/29 11:19:15;;;;;;;12.55;8.20;;;;;;;3.43;93.68;98432.63;6246119;28;20053;-72
2020/12/29 11:22:16;;;;;;;20.33;7.82;;;;;;;3.49;90.53;98426.22;6246425;28;20064;-72
2020/12/29 11:25:17;;;;;;;11.80;7.00;;;;;;;3.60;90.36;98431.59;6246666;28;20126;-72
2020/12/29 11:28:18;;;;;;;14.70;7.03;;;;;;;3.60;90.40;98428.16;6245576;28;20421;-72
2020/12/29 11:31:21;;;;;;;13.52;6.30;;;;;;;3.61;90.33;98427.22;6246239;28;20045;-72
2020/12/29 11:34:22;;;;;;;12.55;7.15;;;;;;;3.71;90.15;98431.75;6232036;28;20054;-72
2020/12/29 11:37:23;;;;;;;18.52;7.38;;;;;;;3.66;90.10;98433.78;6240783;28;20425;-72
2020/12/29 11:40:24;;;;;;;14.90;6.72;;;;;;;3.63;90.14;98436.56;6238973;28;20062;-72
2020/12/29 11:43:25;;;;;;;9.88;6.50;;;;;;;3.80;90.11;98427.75;6246520;28;20049;-71
2020/12/29 11:46:26;;;;;;;14.15;6.90;;;;;;;3.64;89.74;98427.88;6245923;28;20072;-71
2020/12/29 11:49:27;;;;;;;11.00;6.40;;;;;;;3.76;89.59;98436.66;6245982;28;20103;-71
2020/12/29 11:52:28;;;;;;;12.75;6.45;;;;;;;3.85;90.34;98438.66;6246302;28;20053;-71
2020/12/29 11:55:29;;;;;;;14.20;7.20;;;;;;;3.87;90.71;98436.81;6246005;28;20124;-72
2020/12/29 11:58:30;;;;;;;10.68;6.45;;;;;;;3.79;88.91;98441.66;6245776;28;20049;-70
2020/12/29 12:01:32;;;;;;;13.23;6.28;;;;;;;3.74;90.10;98449.75;6245743;28;20045;-71
2020/12/29 12:04:33;;;;;;;11.43;6.18;;;;;;;3.85;88.43;98451.66;6246086;28;20068;-72
2020/12/29 12:07:34;;;;;;;11.45;6.18;;;;;;;3.93;86.97;98454.63;6245372;28;20054;-71
2020/12/29 12:10:34;;;;;;;12.35;6.03;;;;;;;3.77;88.98;98462.56;6232386;28;20123;-72
2020/12/29 12:13:35;;;;;;;17.23;6.43;;;;;;;3.74;88.17;98462.72;6221328;28;20499;-72
2020/12/29 12:16:40;;;;;;;14.48;6.15;;;;;;;3.68;88.83;98454.47;6221207;28;20049;-71
2020/12/29 12:19:41;;;;;;;11.38;5.72;;;;;;;3.73;88.95;98468.84;6221010;28;20054;-72
2020/12/29 12:22:42;;;;;;;13.05;7.22;;;;;;;3.83;88.10;98461.31;6221538;28;20429;-71
2020/12/29 12:25:43;;;;;;;14.93;7.70;;;;;;;3.66;88.29;98464.97;6221557;28;20503;-72
2020/12/29 12:28:43;;;;;;;17.50;9.07;;;;;;;3.74;89.31;98474.88;6220311;28;20422;-72
2020/12/29 12:31:45;;;;;;;17.50;7.80;;;;;;;3.66;88.42;98477.94;6221467;28;20061;-72
2020/12/29 12:34:46;;;;;;;15.57;9.23;;;;;;;3.71;90.17;98477.66;6221171;28;20042;-72
2020/12/29 12:37:47;;;;;;;20.70;9.80;;;;;;;3.68;90.63;98477.84;6221202;28;20054;-72
2020/12/29 12:40:49;;;;;;;17.15;10.25;;;;;;;3.63;89.38;98492.88;6238589;28;20049;-72
2020/12/29 12:43:50;;;;;;;22.73;9.40;;;;;;;3.59;90.38;98487.06;6246001;28;20049;-72
2020/12/29 12:46:51;;;;;;;21.92;9.80;;;;;;;3.65;90.33;98502.25;6249007;28;20077;-71
2020/12/29 12:49:52;;;;;;;18.98;10.40;;;;;;;3.54;91.57;98505.53;6250152;28;20052;-72
2020/12/29 12:52:53;;;;;;;20.80;10.02;;;;;;;3.76;91.09;98518.00;6250072;28;20053;-72
2020/12/29 12:55:54;;;;;;;24.60;10.65;;;;;;;3.65;91.10;98514.41;6249785;28;20698;-71
2020/12/29 12:58:55;;;;;;;21.75;11.00;;;;;;;3.53;92.21;98522.00;6249632;28;20958;-71
2020/12/29 13:01:56;;;;;;;19.63;9.85;;;;;;;3.56;91.35;98521.81;6249801;28;20081;-72
2020/12/29 13:04:57;;;;;;;18.55;9.80;;;;;;;3.49;91.76;98514.50;6249775;28;20049;-72
2020/12/29 13:07:58;;;;;;;21.02;10.90;;;;;;;3.46;91.78;98517.28;6249140;28;20057;-72
2020/12/29 13:10:59;;;;;;;20.38;11.25;;;;;;;3.41;92.20;98527.94;6249275;28;20053;-72
2020/12/29 13:14:00;;;;;;;23.33;12.48;;;;;;;3.41;91.32;98535.75;6249533;28;20521;-72
2020/12/29 13:17:01;;;;;;;22.98;12.65;;;;;;;3.44;91.32;98543.31;6249386;28;20136;-72
2020/12/29 13:20:03;;;;;;;19.48;11.80;;;;;;;3.47;91.10;98545.75;6249038;28;20426;-72
2020/12/29 13:23:06;;;;;;;20.45;10.18;;;;;;;3.50;91.58;98563.75;6249521;28;20057;-71
2020/12/29 13:26:11;;;;;;;16.23;9.60;;;;;;;3.62;90.71;98561.34;6249282;28;20046;-71
2020/12/29 13:29:12;;;;;;;18.00;9.82;;;;;;;3.36;92.01;98565.47;6248603;28;20049;-71
2020/12/29 13:32:13;;;;;;;19.15;11.20;;;;;;;3.31;91.19;98565.75;6249510;28;20049;-72
2020/12/29 13:35:14;;;;;;;20.75;12.13;;;;;;;3.35;91.38;98571.59;6248958;28;20049;-72
2020/12/29 13:38:15;;;;;;;22.05;12.77;;;;;;;3.39;91.08;98575.69;6248673;28;20529;-71
2020/12/29 13:41:17;;;;;;;23.25;13.88;;;;;;;3.38;91.83;98585.22;6248580;28;20056;-71
2020/12/29 13:44:18;;;;;;;21.20;13.18;;;;;;;3.37;91.67;98587.94;6249161;28;20068;-71
2020/12/29 13:47:20;;;;;;;26.85;15.55;;;;;;;3.41;91.71;98592.84;6248419;28;20414;-72
2020/12/29 13:50:21;;;;;;;30.17;16.30;;;;;;;3.29;91.41;98588.38;6248495;28;20060;-72
2020/12/29 13:53:22;;;;;;;28.50;16.88;;;;;;;3.27;92.05;98604.03;6248677;28;20132;-73
2020/12/29 13:56:23;;;;;;;32.28;18.63;;;;;;;3.35;91.77;98611.38;6247234;28;20050;-73
2020/12/29 13:59:25;;;;;;;35.53;18.90;;;;;;;3.50;91.79;98601.88;6248208;28;20057;-70
2020/12/29 14:02:26;;;;;;;39.28;18.80;;;;;;;3.49;91.13;98608.78;6248344;28;20052;-71
2020/12/29 14:05:27;;;;;;;35.70;20.27;;;;;;;3.35;91.56;98613.13;6248543;28;20172;-72